createdAt,value
2018-02-14T00:00:42.485Z,8.32
2018-02-14T00:03:10.730Z,9.50
2018-02-14T00:05:39.778Z,10.57
2018-02-14T00:08:08.001Z,11.12
2018-02-14T00:10:36.381Z,10.70
2018-02-14T00:13:05.430Z,8.40
2018-02-14T00:15:33.678Z,7.28
2018-02-14T00:18:01.941Z,9.43
2018-02-14T00:20:30.981Z,14.68
2018-02-14T00:22:59.257Z,9.52
2018-02-14T00:25:27.533Z,12.88
2018-02-14T00:27:55.822Z,10.23
2018-02-14T00:30:24.091Z,12.02
2018-02-14T00:32:52.362Z,10.38
2018-02-14T00:35:20.637Z,10.43
2018-02-14T00:37:48.970Z,10.55
2018-02-14T00:40:17.221Z,10.13
2018-02-14T00:42:45.494Z,8.57
2018-02-14T00:45:13.746Z,10.88
2018-02-14T00:47:42.815Z,8.68
2018-02-14T00:50:11.090Z,13.10
2018-02-14T00:52:39.441Z,14.30
2018-02-14T00:55:07.742Z,11.15
2018-02-14T00:57:35.982Z,8.23
2018-02-14T01:00:04.252Z,11.90
2018-02-14T01:02:32.570Z,13.75
2018-02-14T01:05:00.838Z,8.25
2018-02-14T01:07:29.130Z,8.07
2018-02-14T01:09:57.390Z,10.45
2018-02-14T01:12:25.691Z,14.05
2018-02-14T01:14:53.982Z,12.95
2018-02-14T01:17:22.249Z,10.48
2018-02-14T01:19:57.422Z,10.50
2018-02-14T01:22:25.674Z,8.48
2018-02-14T01:24:53.954Z,10.88
2018-02-14T01:27:22.260Z,9.35
2018-02-14T01:29:50.511Z,10.65
2018-02-14T01:32:18.768Z,12.15
2018-02-14T01:34:47.029Z,11.48
2018-02-14T01:37:15.460Z,10.32
2018-02-14T01:39:43.723Z,10.18
2018-02-14T01:42:11.978Z,9.30
2018-02-14T01:44:40.278Z,9.18
2018-02-14T01:47:08.566Z,9.48
2018-02-14T01:49:36.838Z,11.35
2018-02-14T01:52:05.092Z,13.38
2018-02-14T01:54:34.120Z,13.68
2018-02-14T01:57:02.372Z,9.52
2018-02-14T01:59:30.683Z,11.88
2018-02-14T02:01:58.967Z,9.10
2018-02-14T02:04:27.358Z,11.15
2018-02-14T02:06:55.627Z,14.60
2018-02-14T02:09:23.903Z,10.80
2018-02-14T02:11:52.181Z,14.90
2018-02-14T02:14:20.454Z,12.68
2018-02-14T02:16:48.746Z,12.15
2018-02-14T02:19:17.019Z,18.42
2018-02-14T02:21:45.265Z,14.05
2018-02-14T02:24:13.547Z,14.32
2018-02-14T02:26:42.568Z,12.70
2018-02-14T02:29:10.870Z,11.40
2018-02-14T02:31:39.136Z,15.00
2018-02-14T02:34:07.454Z,13.35
2018-02-14T02:36:35.703Z,8.38
2018-02-14T02:41:56.817Z,20.83
2018-02-14T02:44:25.124Z,12.02
2018-02-14T02:46:53.391Z,11.98
2018-02-14T02:49:21.794Z,17.62
2018-02-14T02:51:50.059Z,9.88
2018-02-14T02:54:18.330Z,11.90
2018-02-14T02:56:46.569Z,11.35
2018-02-14T02:59:15.638Z,12.13
2018-02-14T03:01:43.866Z,17.15
2018-02-14T03:04:12.173Z,14.50
2018-02-14T03:06:40.455Z,13.27
2018-02-14T03:09:08.722Z,15.25
2018-02-14T03:11:36.982Z,10.40
2018-02-14T03:14:05.252Z,11.55
2018-02-14T03:16:34.271Z,14.93
2018-02-14T03:19:02.565Z,10.13
2018-02-14T03:21:30.850Z,14.23
2018-02-14T03:23:59.125Z,14.93
2018-02-14T03:26:27.386Z,11.48
2018-02-14T03:28:55.678Z,10.85
2018-02-14T03:31:23.935Z,11.50
2018-02-14T03:33:52.217Z,12.13
2018-02-14T03:36:20.622Z,16.33
2018-02-14T03:38:48.899Z,14.73
2018-02-14T03:41:17.159Z,11.75
2018-02-14T03:43:45.804Z,13.68
2018-02-14T03:46:14.186Z,10.45
2018-02-14T03:48:42.680Z,11.45
2018-02-14T03:51:11.030Z,10.88
2018-02-14T03:53:39.397Z,12.90
2018-02-14T03:56:07.648Z,16.33
2018-02-14T03:58:35.910Z,11.05
2018-02-14T04:01:04.938Z,11.57
2018-02-14T04:03:33.196Z,12.98
2018-02-14T04:06:01.470Z,13.18
2018-02-14T04:08:30.498Z,9.52
2018-02-14T04:10:58.795Z,13.23
2018-02-14T04:13:27.065Z,13.77
2018-02-14T04:15:55.337Z,12.65
2018-02-14T04:18:23.583Z,11.50
2018-02-14T04:20:52.634Z,13.98
2018-02-14T04:23:20.887Z,13.82
2018-02-14T04:25:49.186Z,14.18
2018-02-14T04:28:17.434Z,12.60
2018-02-14T04:30:45.730Z,11.38
2018-02-14T04:33:13.977Z,10.98
2018-02-14T04:35:42.251Z,11.80
2018-02-14T04:38:11.294Z,13.60
2018-02-14T04:40:39.554Z,10.52
2018-02-14T04:43:07.806Z,15.07
2018-02-14T04:45:36.846Z,15.13
2018-02-14T04:48:05.135Z,11.85
2018-02-14T04:50:33.419Z,14.48
2018-02-14T04:53:01.682Z,12.13
2018-02-14T04:55:29.945Z,14.77
2018-02-14T04:57:58.190Z,13.62
2018-02-14T05:00:26.538Z,13.65
2018-02-14T05:02:54.837Z,11.48
2018-02-14T05:05:23.212Z,11.63
2018-02-14T05:07:52.256Z,18.58
2018-02-14T05:10:26.086Z,19.95
2018-02-14T05:12:54.345Z,13.57
2018-02-14T05:15:22.618Z,11.90
2018-02-14T05:17:50.881Z,14.45
2018-02-14T05:20:19.166Z,10.85
2018-02-14T05:22:47.426Z,10.63
2018-02-14T05:25:16.457Z,15.38
2018-02-14T05:27:44.718Z,13.10
2018-02-14T05:30:13.007Z,16.70
2018-02-14T05:32:41.251Z,21.27
2018-02-14T05:35:09.529Z,21.58
2018-02-14T05:37:40.025Z,15.77
2018-02-14T05:40:09.431Z,15.65
2018-02-14T05:42:37.714Z,15.68
2018-02-14T05:45:06.006Z,14.48
2018-02-14T05:47:34.389Z,19.05
2018-02-14T05:50:02.672Z,12.15
2018-02-14T05:52:30.924Z,15.52
2018-02-14T05:54:59.783Z,15.00
2018-02-14T05:57:28.800Z,13.43
2018-02-14T05:59:57.825Z,13.93
2018-02-14T06:02:26.094Z,13.65
2018-02-14T06:04:54.394Z,12.10
2018-02-14T06:07:22.685Z,19.92
2018-02-14T06:09:50.986Z,13.98
2018-02-14T06:12:19.218Z,15.60
2018-02-14T06:14:47.490Z,13.35
2018-02-14T06:17:15.802Z,16.35
2018-02-14T06:19:45.610Z,15.70
2018-02-14T06:22:13.884Z,14.40
2018-02-14T06:24:42.324Z,16.87
2018-02-14T06:27:14.103Z,18.75
2018-02-14T06:29:43.270Z,13.98
2018-02-14T06:32:12.326Z,16.90
2018-02-14T06:34:40.615Z,12.57
2018-02-14T06:37:09.044Z,15.98
2018-02-14T06:39:38.078Z,14.82
2018-02-14T06:42:06.368Z,13.90
2018-02-14T06:44:34.668Z,13.60
2018-02-14T06:47:03.052Z,13.30
2018-02-14T06:49:31.365Z,21.30
2018-02-14T06:52:00.296Z,19.70
2018-02-14T06:54:29.008Z,18.60
2018-02-14T06:56:57.440Z,15.45
2018-02-14T06:59:25.691Z,15.95
2018-02-14T07:01:54.078Z,17.50
2018-02-14T07:04:22.353Z,14.00
2018-02-14T07:06:50.664Z,17.73
2018-02-14T07:09:18.902Z,14.60
2018-02-14T07:11:47.183Z,12.13
2018-02-14T07:14:15.501Z,16.08
2018-02-14T07:16:43.773Z,21.00
2018-02-14T07:19:12.025Z,18.80
2018-02-14T07:21:40.300Z,12.13
2018-02-14T07:24:08.568Z,14.60
2018-02-14T07:26:36.853Z,13.62
2018-02-14T07:29:05.118Z,9.25
2018-02-14T07:31:34.354Z,15.40
2018-02-14T07:34:02.635Z,12.10
2018-02-14T07:36:30.926Z,12.30
2018-02-14T07:38:59.176Z,10.73
2018-02-14T07:41:28.310Z,18.17
2018-02-14T07:43:56.626Z,11.57
2018-02-14T07:46:24.879Z,13.17
2018-02-14T07:48:53.155Z,11.63
2018-02-14T07:51:21.574Z,14.33
2018-02-14T07:53:49.830Z,11.97
2018-02-14T07:56:18.075Z,13.87
2018-02-14T07:58:46.341Z,14.97
2018-02-14T08:01:15.370Z,12.17
2018-02-14T08:03:43.745Z,9.77
2018-02-14T08:06:12.037Z,12.00
2018-02-14T08:08:40.390Z,11.43
2018-02-14T08:11:09.434Z,12.50
2018-02-14T08:13:37.689Z,13.20
2018-02-14T08:16:05.959Z,17.93
2018-02-14T08:18:34.304Z,11.40
2018-02-14T08:21:02.657Z,18.60
2018-02-14T08:23:30.911Z,11.90
2018-02-14T08:25:59.499Z,11.07
2018-02-14T08:28:28.964Z,14.33
2018-02-14T08:30:57.227Z,13.67
2018-02-14T08:33:26.038Z,13.07
2018-02-14T08:35:54.611Z,10.07
2018-02-14T08:38:23.952Z,16.50
2018-02-14T08:40:52.251Z,14.10
2018-02-14T08:43:21.420Z,12.53
2018-02-14T08:45:49.706Z,9.33
2018-02-14T08:48:18.188Z,18.00
2018-02-14T08:50:47.310Z,11.07
2018-02-14T08:53:18.983Z,12.20
2018-02-14T08:55:48.053Z,10.97
2018-02-14T08:58:16.317Z,10.97
2018-02-14T09:00:44.616Z,12.30
2018-02-14T09:03:12.883Z,12.10
2018-02-14T09:05:41.285Z,13.13
2018-02-14T09:08:10.432Z,13.30
2018-02-14T09:10:38.698Z,14.73
2018-02-14T09:13:08.392Z,11.30
2018-02-14T09:15:36.670Z,11.73
2018-02-14T09:18:05.691Z,16.43
2018-02-14T09:20:34.719Z,13.63
2018-02-14T09:23:02.984Z,13.50
2018-02-14T09:25:31.296Z,16.53
2018-02-14T09:27:59.554Z,12.00
2018-02-14T09:30:27.833Z,13.60
2018-02-14T09:32:56.289Z,15.70
2018-02-14T09:35:25.362Z,16.90
2018-02-14T09:37:53.640Z,13.07
2018-02-14T09:40:21.928Z,16.63
2018-02-14T09:42:50.522Z,13.53
2018-02-14T09:45:18.909Z,14.80
2018-02-14T09:47:48.269Z,16.50
2018-02-14T09:50:17.105Z,15.47
2018-02-14T09:52:45.418Z,13.00
2018-02-14T09:55:14.593Z,15.03
2018-02-14T09:57:42.883Z,14.00
2018-02-14T10:00:11.315Z,15.23
2018-02-14T10:02:39.599Z,14.50
2018-02-14T10:05:07.866Z,16.97
2018-02-14T10:07:36.135Z,22.53
2018-02-14T10:10:05.154Z,13.63
2018-02-14T10:12:33.477Z,15.90
2018-02-14T10:15:01.749Z,17.73
2018-02-14T10:17:30.020Z,19.10
2018-02-14T10:19:58.302Z,16.80
2018-02-14T10:22:26.689Z,18.50
2018-02-14T10:24:54.951Z,21.53
2018-02-14T10:27:23.214Z,15.43
2018-02-14T10:29:51.505Z,16.80
2018-02-14T10:32:20.518Z,16.23
2018-02-14T10:34:48.801Z,13.13
2018-02-14T10:37:17.065Z,16.10
2018-02-14T10:39:45.330Z,15.90
2018-02-14T10:42:14.814Z,17.00
2018-02-14T10:44:44.077Z,13.87
2018-02-14T10:47:12.912Z,15.10
2018-02-14T10:49:41.399Z,14.83
2018-02-14T10:52:09.675Z,16.40
2018-02-14T10:54:37.937Z,16.40
2018-02-14T10:57:06.234Z,18.37
2018-02-14T10:59:34.494Z,13.97
2018-02-14T11:02:08.335Z,14.90
2018-02-14T11:04:42.336Z,18.83
2018-02-14T11:07:16.428Z,16.10
2018-02-14T11:09:44.667Z,16.37
2018-02-14T11:12:13.835Z,17.47
2018-02-14T11:14:42.128Z,15.30
2018-02-14T11:17:10.389Z,17.40
2018-02-14T11:19:38.636Z,14.87
2018-02-14T11:22:06.908Z,13.97
2018-02-14T11:24:35.946Z,14.77
2018-02-14T11:27:05.177Z,19.33
2018-02-14T11:29:33.538Z,16.60
2018-02-14T11:32:01.797Z,11.47
2018-02-14T11:34:30.069Z,13.17
2018-02-14T11:36:58.731Z,15.80
2018-02-14T11:39:27.750Z,16.70
2018-02-14T11:41:56.026Z,16.27
2018-02-14T11:44:25.079Z,13.90
2018-02-14T11:46:53.336Z,15.20
2018-02-14T11:49:21.595Z,11.73
2018-02-14T11:51:50.604Z,13.57
2018-02-14T11:54:18.905Z,12.00
2018-02-14T11:56:47.173Z,9.40
2018-02-14T11:59:15.487Z,16.20
2018-02-14T12:01:43.745Z,11.43
2018-02-14T12:04:11.983Z,11.23
2018-02-14T12:06:41.001Z,11.83
2018-02-14T12:09:09.247Z,9.83
2018-02-14T12:11:37.500Z,9.47
2018-02-14T12:14:05.799Z,12.90
2018-02-14T12:16:34.069Z,9.37
2018-02-14T12:19:02.505Z,10.67
2018-02-14T12:21:31.602Z,9.63
2018-02-14T12:23:59.822Z,13.63
2018-02-14T12:26:28.098Z,10.50
2018-02-14T12:28:56.379Z,10.67
2018-02-14T12:31:24.622Z,9.63
2018-02-14T12:33:53.646Z,9.80
2018-02-14T12:36:21.885Z,8.30
2018-02-14T12:38:50.149Z,11.63
2018-02-14T12:41:18.397Z,9.30
2018-02-14T12:43:46.649Z,12.27
2018-02-14T12:46:15.654Z,8.93
2018-02-14T12:48:43.918Z,12.83
2018-02-14T12:51:12.925Z,9.60
2018-02-14T12:53:41.956Z,8.37
2018-02-14T12:56:10.193Z,10.00
2018-02-14T12:58:39.262Z,10.20
2018-02-14T13:01:07.497Z,11.83
2018-02-14T13:03:35.761Z,9.77
2018-02-14T13:06:04.775Z,10.90
2018-02-14T13:08:33.039Z,13.80
2018-02-14T13:11:02.082Z,12.83
2018-02-14T13:13:30.471Z,8.20
2018-02-14T13:15:59.195Z,11.00
2018-02-14T13:18:27.467Z,15.17
2018-02-14T13:20:55.709Z,12.00
2018-02-14T13:23:23.982Z,13.17
2018-02-14T13:25:52.282Z,11.13
2018-02-14T13:28:20.571Z,9.27
2018-02-14T13:30:48.814Z,10.83
2018-02-14T13:33:17.097Z,13.10
2018-02-14T13:35:45.399Z,15.03
2018-02-14T13:38:13.682Z,13.20
2018-02-14T13:40:41.948Z,12.30
2018-02-14T13:43:10.202Z,13.43
2018-02-14T13:45:39.218Z,11.30
2018-02-14T13:48:07.525Z,15.73
2018-02-14T13:50:35.834Z,11.67
2018-02-14T13:53:04.224Z,14.50
2018-02-14T13:55:32.455Z,12.67
2018-02-14T13:58:00.757Z,12.77
2018-02-14T14:00:28.994Z,15.10
2018-02-14T14:02:58.034Z,11.53
2018-02-14T14:05:26.623Z,12.93
2018-02-14T14:07:54.890Z,12.30
2018-02-14T14:10:23.132Z,9.53
2018-02-14T14:12:51.392Z,9.80
2018-02-14T14:15:19.667Z,14.60
2018-02-14T14:17:47.931Z,12.17
2018-02-14T14:20:16.195Z,14.10
2018-02-14T14:22:44.538Z,13.47
2018-02-14T14:25:13.579Z,17.23
2018-02-14T14:27:41.860Z,12.20
2018-02-14T14:30:10.138Z,13.10
2018-02-14T14:32:38.450Z,11.13
2018-02-14T14:35:06.708Z,11.60
2018-02-14T14:37:35.003Z,16.60
2018-02-14T14:40:03.277Z,14.30
2018-02-14T14:42:31.530Z,12.70
2018-02-14T14:44:59.833Z,12.30
2018-02-14T14:47:28.087Z,12.10
2018-02-14T14:49:56.342Z,14.17
2018-02-14T14:52:24.614Z,12.00
2018-02-14T14:54:52.885Z,14.20
2018-02-14T14:57:21.253Z,13.40
2018-02-14T14:59:49.634Z,12.40
2018-02-14T15:02:17.914Z,15.43
2018-02-14T15:04:46.244Z,12.57
2018-02-14T15:07:14.478Z,20.33
2018-02-14T15:09:42.731Z,15.77
2018-02-14T15:12:10.982Z,14.17
2018-02-14T15:14:40.033Z,13.97
2018-02-14T15:17:08.348Z,18.00
2018-02-14T15:19:36.622Z,13.33
2018-02-14T15:22:04.928Z,14.77
2018-02-14T15:24:33.146Z,16.10
2018-02-14T15:27:01.403Z,14.00
2018-02-14T15:29:30.425Z,13.57
2018-02-14T15:31:58.674Z,15.90
2018-02-14T15:34:27.715Z,15.50
2018-02-14T15:36:55.994Z,22.63
2018-02-14T15:39:24.543Z,13.73
2018-02-14T15:41:53.574Z,13.03
2018-02-14T15:44:22.474Z,17.90
2018-02-14T15:46:50.719Z,15.23
2018-02-14T15:49:19.762Z,13.20
2018-02-14T15:51:48.021Z,15.80
2018-02-14T15:54:16.290Z,14.23
2018-02-14T15:56:44.640Z,15.97
2018-02-14T15:59:12.924Z,15.43
2018-02-14T16:01:41.172Z,14.13
2018-02-14T16:04:09.446Z,17.50
2018-02-14T16:06:37.708Z,16.23
2018-02-14T16:09:06.734Z,15.37
2018-02-14T16:11:35.001Z,18.00
2018-02-14T16:14:03.285Z,17.23
2018-02-14T16:16:31.532Z,13.43
2018-02-14T16:19:00.575Z,21.00
2018-02-14T16:21:28.821Z,14.33
2018-02-14T16:23:57.094Z,18.03
2018-02-14T16:26:25.434Z,15.80
2018-02-14T16:28:53.700Z,21.00
2018-02-14T16:31:21.950Z,18.17
2018-02-14T16:33:50.216Z,15.70
2018-02-14T16:36:18.464Z,15.90
2018-02-14T16:38:46.829Z,16.03
2018-02-14T16:41:15.073Z,16.60
2018-02-14T16:43:43.342Z,16.93
2018-02-14T16:46:12.353Z,20.83
2018-02-14T16:48:40.631Z,18.60
2018-02-14T16:51:08.954Z,18.77
2018-02-14T16:53:37.238Z,18.53
2018-02-14T16:56:05.465Z,14.93
2018-02-14T16:58:35.411Z,16.80
2018-02-14T17:01:03.656Z,17.70
2018-02-14T17:03:31.939Z,18.97
2018-02-14T17:06:00.979Z,17.27
2018-02-14T17:08:29.255Z,16.00
2018-02-14T17:10:57.637Z,16.00
2018-02-14T17:13:25.914Z,20.80
2018-02-14T17:15:54.189Z,21.93
2018-02-14T17:18:22.485Z,15.77
2018-02-14T17:20:50.729Z,16.63
2018-02-14T17:23:18.994Z,17.90
2018-02-14T17:25:48.048Z,21.60
2018-02-14T17:28:16.325Z,21.93
2018-02-14T17:30:44.587Z,17.53
2018-02-14T17:33:12.865Z,19.10
2018-02-14T17:35:41.394Z,22.00
2018-02-14T17:38:09.981Z,20.03
2018-02-14T17:40:38.290Z,22.37
2018-02-14T17:43:07.678Z,27.20
2018-02-14T17:45:36.111Z,24.10
2018-02-14T17:48:04.513Z,23.20
2018-02-14T17:50:33.030Z,22.27
2018-02-14T17:53:02.094Z,34.03
2018-02-14T17:55:30.378Z,23.47
2018-02-14T17:57:59.701Z,19.40
2018-02-14T18:00:28.056Z,26.75
2018-02-14T18:02:56.368Z,29.37
2018-02-14T18:05:24.728Z,21.50
2018-02-14T18:07:52.988Z,22.57
2018-02-14T18:10:21.302Z,21.57
2018-02-14T18:12:49.574Z,19.37
2018-02-14T18:15:17.841Z,23.87
2018-02-14T18:17:46.130Z,26.13
2018-02-14T18:20:14.405Z,23.20
2018-02-14T18:22:42.653Z,21.87
2018-02-14T18:25:11.694Z,21.90
2018-02-14T18:27:39.950Z,19.10
2018-02-14T18:30:08.223Z,17.67
2018-02-14T18:32:37.332Z,21.07
2018-02-14T18:35:05.694Z,16.40
2018-02-14T18:37:34.743Z,27.73
2018-02-14T18:40:03.374Z,17.50
2018-02-14T18:42:31.675Z,21.50
2018-02-14T18:44:59.990Z,21.20
2018-02-14T18:47:28.251Z,21.60
2018-02-14T18:49:56.754Z,23.27
2018-02-14T18:52:25.237Z,21.90
2018-02-14T18:54:53.487Z,25.03
2018-02-14T18:57:21.762Z,23.13
2018-02-14T18:59:50.844Z,18.27
2018-02-14T19:02:19.196Z,21.83
2018-02-14T19:05:00.814Z,20.97
2018-02-14T19:07:32.520Z,20.70
2018-02-14T19:10:00.833Z,23.23
2018-02-14T19:12:29.100Z,23.00
2018-02-14T19:14:57.350Z,20.97
2018-02-14T19:17:25.626Z,24.87
2018-02-14T19:19:53.968Z,18.93
2018-02-14T19:22:22.319Z,26.87
2018-02-14T19:24:50.603Z,24.97
2018-02-14T19:27:18.868Z,16.93
2018-02-14T19:29:47.118Z,24.30
2018-02-14T19:32:16.184Z,23.80
2018-02-14T19:34:44.467Z,26.00
2018-02-14T19:37:12.735Z,21.77
2018-02-14T19:39:40.983Z,23.87
2018-02-14T19:42:09.294Z,28.40
2018-02-14T19:44:37.554Z,23.23
2018-02-14T19:47:07.030Z,25.60
2018-02-14T19:49:36.078Z,22.50
2018-02-14T19:52:04.349Z,25.47
2018-02-14T19:54:32.608Z,24.03
2018-02-14T19:57:00.863Z,24.93
2018-02-14T19:59:29.127Z,23.80
2018-02-14T20:01:57.475Z,28.00
2018-02-14T20:04:25.761Z,24.27
2018-02-14T20:06:54.018Z,27.60
2018-02-14T20:09:22.354Z,29.47
2018-02-14T20:11:50.572Z,26.77
2018-02-14T20:14:18.883Z,26.87
2018-02-14T20:16:47.159Z,26.47
2018-02-14T20:19:15.442Z,29.67
2018-02-14T20:21:43.699Z,24.47
2018-02-14T20:24:12.024Z,28.10
2018-02-14T20:26:40.297Z,23.40
2018-02-14T20:29:08.554Z,25.77
2018-02-14T20:31:37.573Z,22.13
2018-02-14T20:34:05.842Z,23.60
2018-02-14T20:36:34.142Z,21.73
2018-02-14T20:39:02.502Z,23.17
2018-02-14T20:41:30.747Z,22.83
2018-02-14T20:43:59.783Z,24.97
2018-02-14T20:46:28.030Z,22.40
2018-02-14T20:48:57.107Z,24.87
2018-02-14T20:51:25.396Z,20.60
2018-02-14T20:53:53.658Z,22.77
2018-02-14T20:56:22.022Z,32.73
2018-02-14T20:58:50.297Z,22.73
2018-02-14T21:01:18.538Z,20.63
2018-02-14T21:03:47.629Z,26.53
2018-02-14T21:06:16.649Z,25.27
2018-02-14T21:08:44.916Z,25.07
2018-02-14T21:11:13.928Z,23.63
2018-02-14T21:13:42.193Z,25.20
2018-02-14T21:16:11.266Z,27.33
2018-02-14T21:18:39.602Z,29.03
2018-02-14T21:21:07.898Z,26.97
2018-02-14T21:23:36.190Z,27.03
2018-02-14T21:26:04.450Z,34.97
2018-02-14T21:28:32.762Z,23.03
2018-02-14T21:31:01.064Z,24.70
2018-02-14T21:33:30.118Z,26.48
2018-02-14T21:35:58.398Z,28.67
2018-02-14T21:38:26.678Z,25.50
2018-02-14T21:40:54.956Z,26.43
2018-02-14T21:43:23.242Z,25.42
2018-02-14T21:45:51.521Z,32.43
2018-02-14T21:48:19.795Z,33.03
2018-02-14T21:50:48.039Z,29.13
2018-02-14T21:53:17.077Z,27.07
2018-02-14T21:55:45.326Z,27.97
2018-02-14T21:58:14.465Z,24.93
2018-02-14T22:00:42.710Z,24.60
2018-02-14T22:03:10.981Z,33.73
2018-02-14T22:05:40.003Z,32.25
2018-02-14T22:08:08.297Z,27.90
2018-02-14T22:10:36.597Z,31.00
2018-02-14T22:13:04.859Z,25.40
2018-02-14T22:15:33.151Z,29.97
2018-02-14T22:18:01.424Z,29.20
2018-02-14T22:20:29.738Z,30.30
2018-02-14T22:22:58.024Z,33.30
2018-02-14T22:25:26.316Z,32.57
2018-02-14T22:27:54.590Z,28.80
2018-02-14T22:30:22.934Z,31.20
2018-02-14T22:32:51.239Z,33.03
2018-02-14T22:35:19.539Z,29.40
2018-02-14T22:37:47.838Z,38.70
2018-02-14T22:40:16.117Z,33.50
2018-02-14T22:42:45.199Z,37.40
2018-02-14T22:45:13.460Z,36.17
2018-02-14T22:47:41.713Z,31.87
2018-02-14T22:50:09.985Z,30.17
2018-02-14T22:52:38.240Z,32.63
2018-02-14T22:55:07.266Z,29.57
2018-02-14T22:57:35.528Z,36.57
2018-02-14T23:00:03.843Z,33.43
2018-02-14T23:02:32.099Z,32.80
2018-02-14T23:05:00.370Z,31.07
2018-02-14T23:07:29.387Z,34.87
2018-02-14T23:09:57.672Z,35.05
2018-02-14T23:12:25.905Z,33.93
2018-02-14T23:14:54.956Z,29.50
2018-02-14T23:17:23.195Z,33.47
2018-02-14T23:19:51.475Z,32.47
2018-02-14T23:22:19.720Z,31.50
2018-02-14T23:24:47.980Z,34.33
2018-02-14T23:27:16.214Z,33.20
2018-02-14T23:29:44.475Z,36.42
2018-02-14T23:32:12.715Z,32.30
2018-02-14T23:34:40.970Z,35.53
2018-02-14T23:37:09.213Z,35.67
2018-02-14T23:39:37.485Z,40.90
2018-02-14T23:42:05.760Z,31.63
2018-02-14T23:44:34.019Z,34.43
2018-02-14T23:47:03.026Z,34.57
2018-02-14T23:49:31.286Z,32.50
2018-02-14T23:52:00.288Z,37.22
2018-02-14T23:54:29.303Z,32.87
2018-02-14T23:56:57.555Z,38.20
2018-02-14T23:59:26.584Z,34.53
